sensor_id;sensor_type;location;lat;lon;timestamp;temperature;humidity
36716;DHT22;22699;51.034;3.730;2024-01-10T00:02:06;-2.20;91.80
36716;DHT22;22699;51.034;3.730;2024-01-10T00:04:32;-2.20;91.90
36716;DHT22;22699;51.034;3.730;2024-01-10T00:06:58;-1.70;92.10
36716;DHT22;22699;51.034;3.730;2024-01-10T00:09:23;-2.30;92.00
36716;DHT22;22699;51.034;3.730;2024-01-10T00:11:49;-2.30;92.20
36716;DHT22;22699;51.034;3.730;2024-01-10T00:14:14;-2.40;92.10
36716;DHT22;22699;51.034;3.730;2024-01-10T00:16:41;-2.40;92.30
36716;DHT22;22699;51.034;3.730;2024-01-10T00:19:07;-2.30;92.20
36716;DHT22;22699;51.034;3.730;2024-01-10T00:21:33;-2.40;92.10
36716;DHT22;22699;51.034;3.730;2024-01-10T00:24:00;-2.40;92.20
36716;DHT22;22699;51.034;3.730;2024-01-10T00:26:25;-2.40;92.10
36716;DHT22;22699;51.034;3.730;2024-01-10T00:28:51;-2.40;92.20
36716;DHT22;22699;51.034;3.730;2024-01-10T00:31:17;-2.00;92.40
36716;DHT22;22699;51.034;3.730;2024-01-10T00:33:43;-2.40;92.30
36716;DHT22;22699;51.034;3.730;2024-01-10T00:36:08;-2.40;92.20
36716;DHT22;22699;51.034;3.730;2024-01-10T00:38:34;-2.40;92.50
36716;DHT22;22699;51.034;3.730;2024-01-10T00:41:00;-2.30;92.20
36716;DHT22;22699;51.034;3.730;2024-01-10T00:43:25;-2.40;92.20
36716;DHT22;22699;51.034;3.730;2024-01-10T00:45:51;-2.30;92.30
36716;DHT22;22699;51.034;3.730;2024-01-10T00:48:17;-2.40;92.20
36716;DHT22;22699;51.034;3.730;2024-01-10T00:50:43;-2.40;92.60
36716;DHT22;22699;51.034;3.730;2024-01-10T00:53:10;-2.40;92.30
36716;DHT22;22699;51.034;3.730;2024-01-10T00:55:36;-2.40;92.50
36716;DHT22;22699;51.034;3.730;2024-01-10T00:58:02;-2.50;92.50
36716;DHT22;22699;51.034;3.730;2024-01-10T01:00:28;-2.40;92.60
36716;DHT22;22699;51.034;3.730;2024-01-10T01:02:54;-2.40;92.70
36716;DHT22;22699;51.034;3.730;2024-01-10T01:05:20;-2.40;92.90
36716;DHT22;22699;51.034;3.730;2024-01-10T01:07:45;-2.50;92.70
36716;DHT22;22699;51.034;3.730;2024-01-10T01:10:11;-2.50;92.90
36716;DHT22;22699;51.034;3.730;2024-01-10T01:12:37;-2.30;93.10
36716;DHT22;22699;51.034;3.730;2024-01-10T01:15:03;-2.50;93.00
36716;DHT22;22699;51.034;3.730;2024-01-10T01:17:29;-2.60;93.10
36716;DHT22;22699;51.034;3.730;2024-01-10T01:19:54;-2.60;93.10
36716;DHT22;22699;51.034;3.730;2024-01-10T01:22:20;-2.60;93.10
36716;DHT22;22699;51.034;3.730;2024-01-10T01:24:45;-2.60;92.90
36716;DHT22;22699;51.034;3.730;2024-01-10T01:27:12;-2.60;93.20
36716;DHT22;22699;51.034;3.730;2024-01-10T01:29:37;-2.60;93.20
36716;DHT22;22699;51.034;3.730;2024-01-10T01:32:03;-2.70;93.10
36716;DHT22;22699;51.034;3.730;2024-01-10T01:34:29;-2.70;93.10
36716;DHT22;22699;51.034;3.730;2024-01-10T01:36:55;-2.80;93.20
36716;DHT22;22699;51.034;3.730;2024-01-10T01:39:20;-2.70;93.40
36716;DHT22;22699;51.034;3.730;2024-01-10T01:41:46;-2.70;93.40
36716;DHT22;22699;51.034;3.730;2024-01-10T01:44:11;-2.70;93.30
36716;DHT22;22699;51.034;3.730;2024-01-10T01:46:37;-2.70;93.30
36716;DHT22;22699;51.034;3.730;2024-01-10T01:49:05;-2.70;93.10
36716;DHT22;22699;51.034;3.730;2024-01-10T01:51:34;-2.20;93.40
36716;DHT22;22699;51.034;3.730;2024-01-10T01:54:06;-2.70;93.30
36716;DHT22;22699;51.034;3.730;2024-01-10T01:56:36;-2.70;93.20
36716;DHT22;22699;51.034;3.730;2024-01-10T01:59:02;-2.80;93.20
36716;DHT22;22699;51.034;3.730;2024-01-10T02:01:28;-2.80;93.40
36716;DHT22;22699;51.034;3.730;2024-01-10T02:03:55;-2.80;93.40
36716;DHT22;22699;51.034;3.730;2024-01-10T02:06:21;-2.80;93.40
36716;DHT22;22699;51.034;3.730;2024-01-10T02:08:46;-2.80;93.40
36716;DHT22;22699;51.034;3.730;2024-01-10T02:11:12;-2.80;93.40
36716;DHT22;22699;51.034;3.730;2024-01-10T02:13:38;-2.70;93.40
36716;DHT22;22699;51.034;3.730;2024-01-10T02:16:04;-2.70;93.40
36716;DHT22;22699;51.034;3.730;2024-01-10T02:18:30;-2.80;93.40
36716;DHT22;22699;51.034;3.730;2024-01-10T02:20:56;-2.80;93.50
36716;DHT22;22699;51.034;3.730;2024-01-10T02:23:23;-2.40;93.70
36716;DHT22;22699;51.034;3.730;2024-01-10T02:25:49;-2.80;93.50
36716;DHT22;22699;51.034;3.730;2024-01-10T02:28:15;-2.70;93.40
36716;DHT22;22699;51.034;3.730;2024-01-10T02:30:40;-2.70;93.30
36716;DHT22;22699;51.034;3.730;2024-01-10T02:33:06;-2.80;93.20
36716;DHT22;22699;51.034;3.730;2024-01-10T02:35:32;-2.80;93.30
36716;DHT22;22699;51.034;3.730;2024-01-10T02:37:58;-2.90;93.50
36716;DHT22;22699;51.034;3.730;2024-01-10T02:40:24;-2.90;93.60
36716;DHT22;22699;51.034;3.730;2024-01-10T02:42:50;-2.90;93.90
36716;DHT22;22699;51.034;3.730;2024-01-10T02:45:18;-2.90;93.70
36716;DHT22;22699;51.034;3.730;2024-01-10T02:47:45;-2.90;93.50
36716;DHT22;22699;51.034;3.730;2024-01-10T02:50:10;-2.90;93.60
36716;DHT22;22699;51.034;3.730;2024-01-10T02:52:36;-2.90;93.60
36716;DHT22;22699;51.034;3.730;2024-01-10T02:55:02;-2.90;93.40
36716;DHT22;22699;51.034;3.730;2024-01-10T02:57:28;-2.80;93.50
36716;DHT22;22699;51.034;3.730;2024-01-10T02:59:53;-2.80;93.60
36716;DHT22;22699;51.034;3.730;2024-01-10T03:02:19;-2.80;93.40
36716;DHT22;22699;51.034;3.730;2024-01-10T03:04:44;-2.90;93.40
36716;DHT22;22699;51.034;3.730;2024-01-10T03:07:10;-2.80;93.40
36716;DHT22;22699;51.034;3.730;2024-01-10T03:09:36;-2.90;93.30
36716;DHT22;22699;51.034;3.730;2024-01-10T03:12:02;-2.90;93.50
36716;DHT22;22699;51.034;3.730;2024-01-10T03:14:27;-3.00;93.50
36716;DHT22;22699;51.034;3.730;2024-01-10T03:16:53;-2.90;94.20
36716;DHT22;22699;51.034;3.730;2024-01-10T03:19:19;-3.00;93.60
36716;DHT22;22699;51.034;3.730;2024-01-10T03:21:44;-3.00;93.60
36716;DHT22;22699;51.034;3.730;2024-01-10T03:24:10;-3.00;93.50
36716;DHT22;22699;51.034;3.730;2024-01-10T03:26:36;-3.00;93.70
36716;DHT22;22699;51.034;3.730;2024-01-10T03:29:01;-3.00;93.70
36716;DHT22;22699;51.034;3.730;2024-01-10T03:31:29;-3.10;93.60
36716;DHT22;22699;51.034;3.730;2024-01-10T03:33:57;-3.00;93.70
36716;DHT22;22699;51.034;3.730;2024-01-10T03:36:24;-3.10;93.70
36716;DHT22;22699;51.034;3.730;2024-01-10T03:38:52;-3.00;93.80
36716;DHT22;22699;51.034;3.730;2024-01-10T03:41:19;-3.10;93.80
36716;DHT22;22699;51.034;3.730;2024-01-10T03:43:45;-3.10;94.20
36716;DHT22;22699;51.034;3.730;2024-01-10T03:46:12;-3.10;93.90
36716;DHT22;22699;51.034;3.730;2024-01-10T03:48:38;-3.10;93.90
36716;DHT22;22699;51.034;3.730;2024-01-10T03:51:13;-3.10;93.90
36716;DHT22;22699;51.034;3.730;2024-01-10T03:53:40;-3.10;93.80
36716;DHT22;22699;51.034;3.730;2024-01-10T03:56:06;-3.10;93.80
36716;DHT22;22699;51.034;3.730;2024-01-10T03:58:32;-3.00;93.80
36716;DHT22;22699;51.034;3.730;2024-01-10T04:00:57;-3.00;93.70
36716;DHT22;22699;51.034;3.730;2024-01-10T04:03:23;-2.90;93.50
36716;DHT22;22699;51.034;3.730;2024-01-10T04:05:49;-2.90;93.50
36716;DHT22;22699;51.034;3.730;2024-01-10T04:08:14;-2.90;93.40
36716;DHT22;22699;51.034;3.730;2024-01-10T04:10:40;-3.00;93.60
36716;DHT22;22699;51.034;3.730;2024-01-10T04:13:06;-3.00;93.80
36716;DHT22;22699;51.034;3.730;2024-01-10T04:15:32;-2.90;93.70
36716;DHT22;22699;51.034;3.730;2024-01-10T04:17:57;-3.00;93.60
36716;DHT22;22699;51.034;3.730;2024-01-10T04:20:23;-3.00;93.70
36716;DHT22;22699;51.034;3.730;2024-01-10T04:22:49;-3.00;93.60
36716;DHT22;22699;51.034;3.730;2024-01-10T04:25:15;-2.90;93.80
36716;DHT22;22699;51.034;3.730;2024-01-10T04:27:41;-2.90;93.60
36716;DHT22;22699;51.034;3.730;2024-01-10T04:30:07;-3.00;93.40
36716;DHT22;22699;51.034;3.730;2024-01-10T04:32:33;-3.10;93.50
36716;DHT22;22699;51.034;3.730;2024-01-10T04:35:00;-3.00;93.60
36716;DHT22;22699;51.034;3.730;2024-01-10T04:37:25;-3.00;93.40
36716;DHT22;22699;51.034;3.730;2024-01-10T04:39:52;-3.10;93.50
36716;DHT22;22699;51.034;3.730;2024-01-10T04:42:17;-3.20;93.60
36716;DHT22;22699;51.034;3.730;2024-01-10T04:44:44;-3.10;93.60
36716;DHT22;22699;51.034;3.730;2024-01-10T04:47:10;-3.10;94.00
36716;DHT22;22699;51.034;3.730;2024-01-10T04:49:36;-3.20;93.80
36716;DHT22;22699;51.034;3.730;2024-01-10T04:52:02;-3.20;93.70
36716;DHT22;22699;51.034;3.730;2024-01-10T04:54:28;-3.20;93.70
36716;DHT22;22699;51.034;3.730;2024-01-10T04:56:53;-3.20;93.70
36716;DHT22;22699;51.034;3.730;2024-01-10T04:59:19;-2.70;93.70
36716;DHT22;22699;51.034;3.730;2024-01-10T05:01:46;-3.30;93.50
36716;DHT22;22699;51.034;3.730;2024-01-10T05:04:11;-3.30;93.50
36716;DHT22;22699;51.034;3.730;2024-01-10T05:06:37;-3.30;93.60
36716;DHT22;22699;51.034;3.730;2024-01-10T05:09:03;-3.20;93.60
36716;DHT22;22699;51.034;3.730;2024-01-10T05:11:30;-3.20;93.50
36716;DHT22;22699;51.034;3.730;2024-01-10T05:13:55;-3.30;93.40
36716;DHT22;22699;51.034;3.730;2024-01-10T05:16:21;-3.30;93.50
36716;DHT22;22699;51.034;3.730;2024-01-10T05:18:47;-3.40;93.60
36716;DHT22;22699;51.034;3.730;2024-01-10T05:21:12;-3.40;93.50
36716;DHT22;22699;51.034;3.730;2024-01-10T05:23:38;-3.00;93.70
36716;DHT22;22699;51.034;3.730;2024-01-10T05:26:06;-3.30;93.60
36716;DHT22;22699;51.034;3.730;2024-01-10T05:28:32;-3.30;93.50
36716;DHT22;22699;51.034;3.730;2024-01-10T05:30:58;-3.30;93.40
36716;DHT22;22699;51.034;3.730;2024-01-10T05:33:24;-3.30;93.40
36716;DHT22;22699;51.034;3.730;2024-01-10T05:35:50;-3.20;93.20
36716;DHT22;22699;51.034;3.730;2024-01-10T05:38:15;-3.30;93.20
36716;DHT22;22699;51.034;3.730;2024-01-10T05:40:41;-3.30;93.40
36716;DHT22;22699;51.034;3.730;2024-01-10T05:43:07;-3.30;93.20
36716;DHT22;22699;51.034;3.730;2024-01-10T05:45:33;-3.30;93.30
36716;DHT22;22699;51.034;3.730;2024-01-10T05:47:59;-3.30;93.20
36716;DHT22;22699;51.034;3.730;2024-01-10T05:50:26;-3.30;93.30
36716;DHT22;22699;51.034;3.730;2024-01-10T05:52:51;-3.30;93.10
36716;DHT22;22699;51.034;3.730;2024-01-10T05:55:18;-3.30;93.20
36716;DHT22;22699;51.034;3.730;2024-01-10T05:57:44;-3.30;93.40
36716;DHT22;22699;51.034;3.730;2024-01-10T06:00:10;-3.40;93.40
36716;DHT22;22699;51.034;3.730;2024-01-10T06:02:37;-3.30;93.50
36716;DHT22;22699;51.034;3.730;2024-01-10T06:05:09;-3.30;93.70
36716;DHT22;22699;51.034;3.730;2024-01-10T06:07:39;-3.40;93.80
36716;DHT22;22699;51.034;3.730;2024-01-10T06:10:05;-3.30;93.80
36716;DHT22;22699;51.034;3.730;2024-01-10T06:12:31;-3.40;93.70
36716;DHT22;22699;51.034;3.730;2024-01-10T06:14:57;-3.40;93.80
36716;DHT22;22699;51.034;3.730;2024-01-10T06:17:23;-3.40;94.00
36716;DHT22;22699;51.034;3.730;2024-01-10T06:19:49;-3.40;94.00
36716;DHT22;22699;51.034;3.730;2024-01-10T06:22:15;-3.40;94.10
36716;DHT22;22699;51.034;3.730;2024-01-10T06:24:42;-3.40;94.10
36716;DHT22;22699;51.034;3.730;2024-01-10T06:27:09;-3.40;94.40
36716;DHT22;22699;51.034;3.730;2024-01-10T06:29:35;-3.40;94.20
36716;DHT22;22699;51.034;3.730;2024-01-10T06:32:02;-3.40;94.10
36716;DHT22;22699;51.034;3.730;2024-01-10T06:34:28;-3.40;94.10
36716;DHT22;22699;51.034;3.730;2024-01-10T06:36:54;-3.40;94.20
36716;DHT22;22699;51.034;3.730;2024-01-10T06:39:19;-3.50;94.50
36716;DHT22;22699;51.034;3.730;2024-01-10T06:41:49;-3.40;94.60
36716;DHT22;22699;51.034;3.730;2024-01-10T06:44:14;-3.40;94.40
36716;DHT22;22699;51.034;3.730;2024-01-10T06:46:43;-3.40;94.40
36716;DHT22;22699;51.034;3.730;2024-01-10T06:49:11;-3.50;94.50
36716;DHT22;22699;51.034;3.730;2024-01-10T06:51:36;-3.50;94.60
36716;DHT22;22699;51.034;3.730;2024-01-10T06:54:04;-3.50;94.50
36716;DHT22;22699;51.034;3.730;2024-01-10T06:56:31;-3.40;94.50
36716;DHT22;22699;51.034;3.730;2024-01-10T06:59:01;-3.40;94.50
36716;DHT22;22699;51.034;3.730;2024-01-10T07:01:27;-3.40;94.40
36716;DHT22;22699;51.034;3.730;2024-01-10T07:03:54;-3.40;94.50
36716;DHT22;22699;51.034;3.730;2024-01-10T07:06:23;-3.30;94.40
36716;DHT22;22699;51.034;3.730;2024-01-10T07:08:49;-3.40;94.60
36716;DHT22;22699;51.034;3.730;2024-01-10T07:11:16;-3.30;94.60
36716;DHT22;22699;51.034;3.730;2024-01-10T07:13:43;-3.30;94.70
36716;DHT22;22699;51.034;3.730;2024-01-10T07:16:09;-3.20;94.60
36716;DHT22;22699;51.034;3.730;2024-01-10T07:18:35;-3.20;94.60
36716;DHT22;22699;51.034;3.730;2024-01-10T07:21:01;-3.10;94.30
36716;DHT22;22699;51.034;3.730;2024-01-10T07:23:26;-3.10;94.30
36716;DHT22;22699;51.034;3.730;2024-01-10T07:25:52;-3.00;94.40
36716;DHT22;22699;51.034;3.730;2024-01-10T07:28:19;-3.00;94.30
36716;DHT22;22699;51.034;3.730;2024-01-10T07:30:45;-3.00;94.40
36716;DHT22;22699;51.034;3.730;2024-01-10T07:33:12;-3.10;94.40
36716;DHT22;22699;51.034;3.730;2024-01-10T07:35:39;-3.20;94.30
36716;DHT22;22699;51.034;3.730;2024-01-10T07:38:06;-3.40;95.00
36716;DHT22;22699;51.034;3.730;2024-01-10T07:40:36;-3.40;95.00
36716;DHT22;22699;51.034;3.730;2024-01-10T07:43:04;-3.40;95.00
36716;DHT22;22699;51.034;3.730;2024-01-10T07:45:30;-3.40;95.00
36716;DHT22;22699;51.034;3.730;2024-01-10T07:47:55;-3.30;95.00
36716;DHT22;22699;51.034;3.730;2024-01-10T07:50:21;-3.30;94.90
36716;DHT22;22699;51.034;3.730;2024-01-10T07:52:53;-3.30;95.00
36716;DHT22;22699;51.034;3.730;2024-01-10T07:55:21;-3.20;94.90
36716;DHT22;22699;51.034;3.730;2024-01-10T07:57:47;-3.20;94.80
36716;DHT22;22699;51.034;3.730;2024-01-10T08:00:13;-3.20;94.90
36716;DHT22;22699;51.034;3.730;2024-01-10T08:02:41;-3.20;95.00
36716;DHT22;22699;51.034;3.730;2024-01-10T08:05:07;-3.30;95.10
36716;DHT22;22699;51.034;3.730;2024-01-10T08:07:38;-3.30;95.40
36716;DHT22;22699;51.034;3.730;2024-01-10T08:10:08;-3.40;95.00
36716;DHT22;22699;51.034;3.730;2024-01-10T08:12:40;-3.30;95.30
36716;DHT22;22699;51.034;3.730;2024-01-10T08:15:10;-3.00;94.90
36716;DHT22;22699;51.034;3.730;2024-01-10T08:17:35;-2.40;95.10
36716;DHT22;22699;51.034;3.730;2024-01-10T08:20:04;-1.40;94.00
36716;DHT22;22699;51.034;3.730;2024-01-10T08:22:32;-0.80;92.10
36716;DHT22;22699;51.034;3.730;2024-01-10T08:24:58;-0.10;91.50
36716;DHT22;22699;51.034;3.730;2024-01-10T08:27:25;0.80;90.80
36716;DHT22;22699;51.034;3.730;2024-01-10T08:29:51;1.20;88.00
36716;DHT22;22699;51.034;3.730;2024-01-10T08:32:17;2.40;87.00
36716;DHT22;22699;51.034;3.730;2024-01-10T08:34:43;2.10;86.50
36716;DHT22;22699;51.034;3.730;2024-01-10T08:37:11;3.10;83.90
36716;DHT22;22699;51.034;3.730;2024-01-10T08:39:36;3.20;82.40
36716;DHT22;22699;51.034;3.730;2024-01-10T08:42:02;3.90;80.30
36716;DHT22;22699;51.034;3.730;2024-01-10T08:44:28;4.70;80.00
36716;DHT22;22699;51.034;3.730;2024-01-10T08:46:54;5.80;77.00
36716;DHT22;22699;51.034;3.730;2024-01-10T08:49:23;6.10;75.30
36716;DHT22;22699;51.034;3.730;2024-01-10T08:51:49;5.90;78.40
36716;DHT22;22699;51.034;3.730;2024-01-10T08:54:15;6.00;72.90
36716;DHT22;22699;51.034;3.730;2024-01-10T08:56:45;6.50;71.90
36716;DHT22;22699;51.034;3.730;2024-01-10T08:59:12;6.50;70.40
36716;DHT22;22699;51.034;3.730;2024-01-10T09:01:38;6.60;70.30
36716;DHT22;22699;51.034;3.730;2024-01-10T09:04:07;6.90;70.00
36716;DHT22;22699;51.034;3.730;2024-01-10T09:06:35;6.70;68.00
36716;DHT22;22699;51.034;3.730;2024-01-10T09:09:04;7.20;66.90
36716;DHT22;22699;51.034;3.730;2024-01-10T09:11:29;6.80;66.50
36716;DHT22;22699;51.034;3.730;2024-01-10T09:13:56;6.00;67.20
36716;DHT22;22699;51.034;3.730;2024-01-10T09:16:22;5.10;68.30
36716;DHT22;22699;51.034;3.730;2024-01-10T09:18:47;5.30;70.80
36716;DHT22;22699;51.034;3.730;2024-01-10T09:21:15;4.10;70.90
36716;DHT22;22699;51.034;3.730;2024-01-10T09:23:43;3.90;72.00
36716;DHT22;22699;51.034;3.730;2024-01-10T09:26:10;3.50;72.10
36716;DHT22;22699;51.034;3.730;2024-01-10T09:28:37;2.70;73.60
36716;DHT22;22699;51.034;3.730;2024-01-10T09:31:04;1.90;75.90
36716;DHT22;22699;51.034;3.730;2024-01-10T09:33:33;1.40;77.30
36716;DHT22;22699;51.034;3.730;2024-01-10T09:35:59;1.50;78.30
36716;DHT22;22699;51.034;3.730;2024-01-10T09:38:25;1.00;79.30
36716;DHT22;22699;51.034;3.730;2024-01-10T09:40:59;0.30;80.90
36716;DHT22;22699;51.034;3.730;2024-01-10T09:43:29;-0.10;82.60
36716;DHT22;22699;51.034;3.730;2024-01-10T09:45:57;-0.20;83.30
36716;DHT22;22699;51.034;3.730;2024-01-10T09:48:30;-0.60;85.00
36716;DHT22;22699;51.034;3.730;2024-01-10T09:50:58;-1.10;86.80
36716;DHT22;22699;51.034;3.730;2024-01-10T09:53:26;-1.20;87.70
36716;DHT22;22699;51.034;3.730;2024-01-10T09:55:59;-1.40;88.60
36716;DHT22;22699;51.034;3.730;2024-01-10T09:58:27;-0.60;90.00
36716;DHT22;22699;51.034;3.730;2024-01-10T10:00:53;-1.00;90.30
36716;DHT22;22699;51.034;3.730;2024-01-10T10:03:19;-1.60;89.90
36716;DHT22;22699;51.034;3.730;2024-01-10T10:05:45;-1.80;90.30
36716;DHT22;22699;51.034;3.730;2024-01-10T10:08:14;-1.80;90.30
36716;DHT22;22699;51.034;3.730;2024-01-10T10:10:41;-1.40;90.70
36716;DHT22;22699;51.034;3.730;2024-01-10T10:13:10;-1.00;91.00
36716;DHT22;22699;51.034;3.730;2024-01-10T10:16:01;-1.70;91.00
36716;DHT22;22699;51.034;3.730;2024-01-10T10:18:29;-1.70;90.90
36716;DHT22;22699;51.034;3.730;2024-01-10T10:21:12;-1.70;91.10
36716;DHT22;22699;51.034;3.730;2024-01-10T10:23:39;-1.60;90.90
36716;DHT22;22699;51.034;3.730;2024-01-10T10:26:12;-0.60;91.10
36716;DHT22;22699;51.034;3.730;2024-01-10T10:28:42;-1.40;90.90
36716;DHT22;22699;51.034;3.730;2024-01-10T10:31:10;-0.90;90.90
36716;DHT22;22699;51.034;3.730;2024-01-10T10:33:38;-1.40;90.50
36716;DHT22;22699;51.034;3.730;2024-01-10T10:36:07;-1.40;90.20
36716;DHT22;22699;51.034;3.730;2024-01-10T10:38:35;-0.90;90.50
36716;DHT22;22699;51.034;3.730;2024-01-10T10:41:06;-1.30;90.60
36716;DHT22;22699;51.034;3.730;2024-01-10T10:43:38;-1.40;90.60
36716;DHT22;22699;51.034;3.730;2024-01-10T10:46:09;-1.50;90.70
36716;DHT22;22699;51.034;3.730;2024-01-10T10:48:40;-1.50;90.80
36716;DHT22;22699;51.034;3.730;2024-01-10T10:51:15;-1.50;90.70
36716;DHT22;22699;51.034;3.730;2024-01-10T10:53:45;-1.40;90.50
36716;DHT22;22699;51.034;3.730;2024-01-10T10:56:13;-1.30;90.50
36716;DHT22;22699;51.034;3.730;2024-01-10T10:58:43;-1.30;90.10
36716;DHT22;22699;51.034;3.730;2024-01-10T11:01:12;-1.10;90.30
36716;DHT22;22699;51.034;3.730;2024-01-10T11:03:40;-0.80;89.80
36716;DHT22;22699;51.034;3.730;2024-01-10T11:06:07;-0.70;89.80
36716;DHT22;22699;51.034;3.730;2024-01-10T11:08:40;-0.50;89.90
36716;DHT22;22699;51.034;3.730;2024-01-10T11:24:42;-0.70;88.20
36716;DHT22;22699;51.034;3.730;2024-01-10T11:27:13;-0.60;88.70
36716;DHT22;22699;51.034;3.730;2024-01-10T11:29:40;-0.60;88.30
36716;DHT22;22699;51.034;3.730;2024-01-10T11:32:13;-0.70;88.60
36716;DHT22;22699;51.034;3.730;2024-01-10T11:34:58;-0.60;88.60
36716;DHT22;22699;51.034;3.730;2024-01-10T11:37:38;-0.50;88.10
36716;DHT22;22699;51.034;3.730;2024-01-10T11:40:11;-0.40;88.10
36716;DHT22;22699;51.034;3.730;2024-01-10T11:42:44;-0.50;87.20
36716;DHT22;22699;51.034;3.730;2024-01-10T11:47:59;-0.20;86.60
36716;DHT22;22699;51.034;3.730;2024-01-10T11:50:25;-0.30;86.50
36716;DHT22;22699;51.034;3.730;2024-01-10T11:52:55;-0.30;86.20
36716;DHT22;22699;51.034;3.730;2024-01-10T11:55:46;-0.40;86.20
36716;DHT22;22699;51.034;3.730;2024-01-10T11:58:12;-0.30;86.40
36716;DHT22;22699;51.034;3.730;2024-01-10T12:00:39;-0.20;87.00
36716;DHT22;22699;51.034;3.730;2024-01-10T12:03:05;-0.30;86.70
36716;DHT22;22699;51.034;3.730;2024-01-10T12:05:32;-0.20;87.10
36716;DHT22;22699;51.034;3.730;2024-01-10T12:07:57;-0.10;86.30
36716;DHT22;22699;51.034;3.730;2024-01-10T12:10:26;0.00;85.60
36716;DHT22;22699;51.034;3.730;2024-01-10T12:12:52;-0.10;85.60
36716;DHT22;22699;51.034;3.730;2024-01-10T12:15:20;0.00;85.80
36716;DHT22;22699;51.034;3.730;2024-01-10T12:17:46;0.10;85.50
36716;DHT22;22699;51.034;3.730;2024-01-10T12:20:11;0.20;85.30
36716;DHT22;22699;51.034;3.730;2024-01-10T12:22:37;0.00;84.50
36716;DHT22;22699;51.034;3.730;2024-01-10T12:25:07;-0.10;84.60
36716;DHT22;22699;51.034;3.730;2024-01-10T12:27:34;-0.10;84.50
36716;DHT22;22699;51.034;3.730;2024-01-10T12:30:01;0.30;84.90
36716;DHT22;22699;51.034;3.730;2024-01-10T12:32:28;-0.10;84.80
36716;DHT22;22699;51.034;3.730;2024-01-10T12:35:01;0.10;85.10
36716;DHT22;22699;51.034;3.730;2024-01-10T12:37:27;0.40;83.50
36716;DHT22;22699;51.034;3.730;2024-01-10T12:39:54;0.60;83.10
36716;DHT22;22699;51.034;3.730;2024-01-10T12:42:22;0.60;82.20
36716;DHT22;22699;51.034;3.730;2024-01-10T12:44:48;0.70;82.90
36716;DHT22;22699;51.034;3.730;2024-01-10T12:47:20;0.90;81.70
36716;DHT22;22699;51.034;3.730;2024-01-10T12:49:46;1.10;81.20
36716;DHT22;22699;51.034;3.730;2024-01-10T12:52:13;0.90;80.90
36716;DHT22;22699;51.034;3.730;2024-01-10T12:54:39;0.60;81.30
36716;DHT22;22699;51.034;3.730;2024-01-10T12:57:05;0.60;82.00
36716;DHT22;22699;51.034;3.730;2024-01-10T12:59:32;0.60;82.30
36716;DHT22;22699;51.034;3.730;2024-01-10T13:01:59;0.50;82.10
36716;DHT22;22699;51.034;3.730;2024-01-10T13:04:26;0.80;81.90
36716;DHT22;22699;51.034;3.730;2024-01-10T13:06:51;0.80;82.20
36716;DHT22;22699;51.034;3.730;2024-01-10T13:09:17;0.70;81.80
36716;DHT22;22699;51.034;3.730;2024-01-10T13:11:43;0.70;81.50
36716;DHT22;22699;51.034;3.730;2024-01-10T13:14:09;1.20;82.10
36716;DHT22;22699;51.034;3.730;2024-01-10T13:16:35;0.70;82.00
36716;DHT22;22699;51.034;3.730;2024-01-10T13:19:01;0.70;82.10
36716;DHT22;22699;51.034;3.730;2024-01-10T13:21:26;0.80;81.50
36716;DHT22;22699;51.034;3.730;2024-01-10T13:23:52;1.40;81.90
36716;DHT22;22699;51.034;3.730;2024-01-10T13:26:20;0.90;81.60
36716;DHT22;22699;51.034;3.730;2024-01-10T13:28:46;0.90;80.80
36716;DHT22;22699;51.034;3.730;2024-01-10T13:31:11;0.60;81.20
36716;DHT22;22699;51.034;3.730;2024-01-10T13:33:37;0.50;81.30
36716;DHT22;22699;51.034;3.730;2024-01-10T13:36:04;0.60;81.70
36716;DHT22;22699;51.034;3.730;2024-01-10T13:38:31;0.70;81.40
36716;DHT22;22699;51.034;3.730;2024-01-10T13:40:57;0.80;81.70
36716;DHT22;22699;51.034;3.730;2024-01-10T13:43:22;0.60;81.70
36716;DHT22;22699;51.034;3.730;2024-01-10T13:45:48;0.60;82.10
36716;DHT22;22699;51.034;3.730;2024-01-10T13:48:15;1.30;82.80
36716;DHT22;22699;51.034;3.730;2024-01-10T13:50:41;0.50;82.70
36716;DHT22;22699;51.034;3.730;2024-01-10T13:53:07;0.60;82.80
36716;DHT22;22699;51.034;3.730;2024-01-10T13:55:33;0.70;82.40
36716;DHT22;22699;51.034;3.730;2024-01-10T13:58:00;0.70;82.30
36716;DHT22;22699;51.034;3.730;2024-01-10T14:00:27;0.80;82.20
36716;DHT22;22699;51.034;3.730;2024-01-10T14:02:53;0.90;82.20
36716;DHT22;22699;51.034;3.730;2024-01-10T14:05:25;0.90;81.30
36716;DHT22;22699;51.034;3.730;2024-01-10T14:07:50;1.30;81.90
36716;DHT22;22699;51.034;3.730;2024-01-10T14:10:16;0.80;82.10
36716;DHT22;22699;51.034;3.730;2024-01-10T14:12:42;0.90;82.70
36716;DHT22;22699;51.034;3.730;2024-01-10T14:15:09;0.70;83.30
36716;DHT22;22699;51.034;3.730;2024-01-10T14:17:34;0.80;83.60
36716;DHT22;22699;51.034;3.730;2024-01-10T14:20:00;1.10;83.30
36716;DHT22;22699;51.034;3.730;2024-01-10T14:22:26;1.30;82.80
36716;DHT22;22699;51.034;3.730;2024-01-10T14:24:52;1.20;83.10
36716;DHT22;22699;51.034;3.730;2024-01-10T14:27:19;1.40;83.30
36716;DHT22;22699;51.034;3.730;2024-01-10T14:29:45;1.00;83.30
36716;DHT22;22699;51.034;3.730;2024-01-10T14:32:12;0.90;83.90
36716;DHT22;22699;51.034;3.730;2024-01-10T14:34:41;1.00;84.00
36716;DHT22;22699;51.034;3.730;2024-01-10T14:37:08;1.10;83.60
36716;DHT22;22699;51.034;3.730;2024-01-10T14:39:37;1.00;83.30
36716;DHT22;22699;51.034;3.730;2024-01-10T14:42:08;0.90;83.60
36716;DHT22;22699;51.034;3.730;2024-01-10T14:44:36;0.90;83.40
36716;DHT22;22699;51.034;3.730;2024-01-10T14:47:02;1.20;83.80
36716;DHT22;22699;51.034;3.730;2024-01-10T14:49:31;0.90;83.40
36716;DHT22;22699;51.034;3.730;2024-01-10T14:51:56;0.90;83.40
36716;DHT22;22699;51.034;3.730;2024-01-10T14:54:22;0.90;83.40
36716;DHT22;22699;51.034;3.730;2024-01-10T14:56:49;1.00;83.40
36716;DHT22;22699;51.034;3.730;2024-01-10T14:59:17;1.20;82.90
36716;DHT22;22699;51.034;3.730;2024-01-10T15:01:44;1.90;83.00
36716;DHT22;22699;51.034;3.730;2024-01-10T15:04:10;1.20;82.70
36716;DHT22;22699;51.034;3.730;2024-01-10T15:06:36;1.20;82.80
36716;DHT22;22699;51.034;3.730;2024-01-10T15:09:03;1.20;83.20
36716;DHT22;22699;51.034;3.730;2024-01-10T15:11:28;1.30;82.80
36716;DHT22;22699;51.034;3.730;2024-01-10T15:13:54;1.70;82.80
36716;DHT22;22699;51.034;3.730;2024-01-10T15:16:20;1.20;82.60
36716;DHT22;22699;51.034;3.730;2024-01-10T15:18:45;1.20;82.90
36716;DHT22;22699;51.034;3.730;2024-01-10T15:21:12;1.30;83.10
36716;DHT22;22699;51.034;3.730;2024-01-10T15:23:37;1.30;82.40
36716;DHT22;22699;51.034;3.730;2024-01-10T15:26:04;1.20;82.60
36716;DHT22;22699;51.034;3.730;2024-01-10T15:28:29;1.20;82.70
36716;DHT22;22699;51.034;3.730;2024-01-10T15:30:55;1.30;82.70
36716;DHT22;22699;51.034;3.730;2024-01-10T15:33:21;1.10;83.20
36716;DHT22;22699;51.034;3.730;2024-01-10T15:35:47;0.90;83.80
36716;DHT22;22699;51.034;3.730;2024-01-10T15:38:13;0.80;84.30
36716;DHT22;22699;51.034;3.730;2024-01-10T15:40:38;0.80;84.40
36716;DHT22;22699;51.034;3.730;2024-01-10T15:43:05;0.90;84.10
36716;DHT22;22699;51.034;3.730;2024-01-10T15:45:31;0.90;84.30
36716;DHT22;22699;51.034;3.730;2024-01-10T15:47:57;0.80;84.70
36716;DHT22;22699;51.034;3.730;2024-01-10T15:50:22;1.60;85.30